Time;durP1;ratioP1;P1;durP2;ratioP2;P2;SDS_P1;SDS_P2;PMS_P1;PMS_P2;Temp;Humidity;BMP_temperature;BMP_pressure;BME280_temperature;BME280_humidity;BME280_pressure;Samples;Min_cycle;Max_cycle;Signal;HPM_P1;HPM_P2
2023/03/05 00:01:14;;;;;;;0.00;0.00;;;3.90;86.40;;;;;;4989256;28;20049;-67
2023/03/05 00:03:42;;;;;;;0.10;0.10;;;3.90;86.30;;;;;;4990109;28;20042;-68
2023/03/05 00:06:08;;;;;;;0.00;0.00;;;4.00;86.20;;;;;;4991742;28;20038;-67
2023/03/05 00:08:34;;;;;;;0.10;0.10;;;3.90;86.10;;;;;;4992218;28;20107;-68
2023/03/05 00:11:04;;;;;;;0.10;0.10;;;3.90;85.80;;;;;;4977999;28;20043;-67
2023/03/05 00:13:31;;;;;;;0.00;0.00;;;3.90;86.20;;;;;;4981263;28;20510;-67
2023/03/05 00:15:57;;;;;;;0.00;0.00;;;3.90;86.10;;;;;;4991123;28;20112;-68
2023/03/05 00:18:23;;;;;;;0.00;0.00;;;3.90;86.40;;;;;;4991340;28;20463;-67
2023/03/05 00:20:49;;;;;;;0.00;0.00;;;3.90;86.50;;;;;;4987310;28;21455;-68
2023/03/05 00:23:15;;;;;;;0.00;0.00;;;3.90;86.50;;;;;;4987123;28;20129;-67
2023/03/05 00:25:41;;;;;;;0.00;0.00;;;3.90;86.70;;;;;;4989381;28;20060;-68
2023/03/05 00:28:07;;;;;;;0.00;0.00;;;3.80;86.80;;;;;;4991161;28;20050;-67
2023/03/05 00:30:34;;;;;;;0.00;0.00;;;3.80;86.80;;;;;;5005473;28;20100;-68
2023/03/05 00:33:00;;;;;;;0.00;0.00;;;3.80;86.80;;;;;;4990712;28;20121;-68
2023/03/05 00:35:25;;;;;;;0.00;0.00;;;3.80;87.00;;;;;;4981963;28;20047;-67
2023/03/05 00:37:51;;;;;;;0.00;0.00;;;3.80;87.00;;;;;;4969546;28;20047;-68
2023/03/05 00:40:17;;;;;;;0.00;0.00;;;3.80;87.10;;;;;;4979087;28;20055;-68
2023/03/05 00:42:43;;;;;;;0.00;0.00;;;3.70;87.10;;;;;;4991303;28;20604;-67
2023/03/05 00:45:10;;;;;;;0.00;0.00;;;3.80;87.20;;;;;;4989446;28;20213;-67
2023/03/05 00:47:36;;;;;;;0.00;0.00;;;3.70;87.20;;;;;;4998100;28;20050;-68
2023/03/05 00:50:03;;;;;;;0.00;0.00;;;3.70;87.30;;;;;;4986038;28;20080;-68
2023/03/05 00:52:29;;;;;;;0.00;0.00;;;3.70;87.30;;;;;;4976962;28;20044;-68
2023/03/05 00:54:54;;;;;;;0.00;0.00;;;3.70;87.40;;;;;;4981763;28;20043;-68
2023/03/05 00:57:28;;;;;;;0.03;0.03;;;3.70;87.60;;;;;;5127042;27;20414;-68
2023/03/05 00:59:53;;;;;;;1.70;1.58;;;3.70;87.50;;;;;;5126628;28;20097;-68
2023/03/05 01:02:19;;;;;;;0.00;0.00;;;3.70;87.50;;;;;;5108971;28;20655;-68
2023/03/05 01:04:46;;;;;;;0.00;0.00;;;3.70;87.40;;;;;;5106897;28;20043;-68
2023/03/05 01:07:12;;;;;;;0.00;0.00;;;3.70;87.30;;;;;;5122791;27;20120;-68
2023/03/05 01:09:37;;;;;;;0.00;0.00;;;3.70;87.50;;;;;;5106603;28;20032;-68
2023/03/05 01:12:03;;;;;;;0.10;0.10;;;3.70;87.50;;;;;;5106466;28;20036;-68
2023/03/05 01:14:29;;;;;;;0.00;0.00;;;3.60;87.50;;;;;;5108074;28;20104;-68
2023/03/05 01:16:54;;;;;;;0.00;0.00;;;3.70;87.50;;;;;;5106585;28;20086;-68
2023/03/05 01:19:20;;;;;;;0.00;0.00;;;3.60;87.50;;;;;;5094412;28;20075;-68
2023/03/05 01:21:46;;;;;;;0.00;0.00;;;3.60;87.50;;;;;;5110275;27;20032;-68
2023/03/05 01:24:11;;;;;;;0.35;0.35;;;3.60;87.50;;;;;;5106778;28;20046;-68
2023/03/05 01:26:37;;;;;;;0.00;0.00;;;3.50;87.60;;;;;;5111708;28;20040;-68
2023/03/05 01:29:02;;;;;;;0.00;0.00;;;3.50;87.70;;;;;;5111205;27;20024;-68
2023/03/05 01:31:28;;;;;;;0.00;0.00;;;3.50;87.70;;;;;;5091668;28;20044;-67
2023/03/05 01:33:54;;;;;;;0.00;0.00;;;3.50;87.70;;;;;;5107149;27;20094;-68
2023/03/05 01:36:22;;;;;;;0.00;0.00;;;3.40;87.90;;;;;;5126987;27;20126;-67
2023/03/05 01:38:48;;;;;;;0.00;0.00;;;3.50;88.00;;;;;;5127155;27;20040;-68
2023/03/05 01:41:15;;;;;;;0.00;0.00;;;3.50;88.00;;;;;;5108012;28;20038;-68
2023/03/05 01:43:42;;;;;;;0.10;0.10;;;3.40;88.20;;;;;;5104116;28;20036;-68
2023/03/05 01:46:36;;;;;;;0.95;0.95;;;3.40;88.30;;;;;;5094575;28;20042;-68
2023/03/05 01:49:19;;;;;;;0.00;0.00;;;3.50;88.30;;;;;;5097144;28;20123;-68
2023/03/05 01:51:44;;;;;;;;;;;3.40;88.40;;;;;;5097822;28;20569;-67
2023/03/05 01:54:12;;;;;;;0.00;0.00;;;3.50;88.40;;;;;;5099299;28;19967;-68
2023/03/05 01:56:38;;;;;;;0.00;0.00;;;3.50;88.60;;;;;;5093162;28;20062;-67
2023/03/05 01:59:04;;;;;;;0.00;0.00;;;3.60;88.50;;;;;;5107171;28;20430;-67
2023/03/05 02:01:37;;;;;;;0.00;0.00;;;3.60;88.10;;;;;;5104961;28;20043;-67
2023/03/05 02:04:03;;;;;;;0.00;0.00;;;3.60;87.90;;;;;;5105606;28;20040;-67
2023/03/05 02:06:29;;;;;;;0.00;0.00;;;3.40;88.00;;;;;;5105917;28;20097;-69
2023/03/05 02:08:55;;;;;;;0.00;0.00;;;3.20;88.20;;;;;;5091557;28;20040;-68
2023/03/05 02:11:21;;;;;;;0.00;0.00;;;3.20;88.50;;;;;;5082627;28;20041;-68
2023/03/05 02:13:46;;;;;;;0.00;0.00;;;3.20;89.00;;;;;;5071812;28;20146;-68
2023/03/05 02:16:12;;;;;;;0.00;0.00;;;3.10;89.30;;;;;;5071276;28;20501;-68
2023/03/05 02:18:38;;;;;;;0.00;0.00;;;3.10;89.40;;;;;;5073635;28;20044;-68
2023/03/05 02:21:05;;;;;;;0.00;0.00;;;3.10;89.30;;;;;;5083561;28;20037;-68
2023/03/05 02:23:35;;;;;;;0.10;0.10;;;3.10;89.30;;;;;;5079964;28;20036;-68
2023/03/05 02:26:02;;;;;;;0.00;0.00;;;3.10;89.40;;;;;;5076133;28;20156;-67
2023/03/05 02:28:28;;;;;;;0.00;0.00;;;3.10;89.40;;;;;;5071929;28;20043;-68
2023/03/05 02:30:54;;;;;;;0.00;0.00;;;3.10;89.50;;;;;;5084414;28;20040;-68
2023/03/05 02:33:20;;;;;;;0.00;0.00;;;3.10;89.40;;;;;;5076451;28;20081;-68
2023/03/05 02:35:46;;;;;;;0.00;0.00;;;3.10;89.50;;;;;;5082552;28;20068;-68
2023/03/05 02:38:14;;;;;;;0.00;0.00;;;3.10;89.60;;;;;;5078479;28;20809;-68
2023/03/05 02:40:40;;;;;;;0.00;0.00;;;3.10;89.70;;;;;;5081939;28;20138;-68
2023/03/05 02:43:06;;;;;;;0.00;0.00;;;3.10;89.70;;;;;;5080259;28;20720;-68
2023/03/05 02:45:32;;;;;;;0.00;0.00;;;3.10;89.70;;;;;;5082179;28;20798;-68
2023/03/05 02:47:57;;;;;;;0.00;0.00;;;3.10;89.60;;;;;;5082993;28;20037;-68
2023/03/05 02:50:25;;;;;;;0.00;0.00;;;3.10;89.70;;;;;;5079335;28;20128;-68
2023/03/05 02:52:51;;;;;;;0.00;0.00;;;3.10;89.60;;;;;;5082037;28;20115;-68
2023/03/05 02:55:16;;;;;;;0.00;0.00;;;3.10;89.60;;;;;;5082367;28;20044;-68
2023/03/05 02:57:42;;;;;;;0.00;0.00;;;3.10;89.70;;;;;;5082895;28;20048;-68
2023/03/05 03:00:09;;;;;;;0.00;0.00;;;3.10;89.70;;;;;;5085317;28;20040;-68
2023/03/05 03:02:34;;;;;;;0.00;0.00;;;3.10;89.70;;;;;;5081647;28;20115;-68
2023/03/05 03:05:01;;;;;;;0.10;0.10;;;3.10;89.80;;;;;;5087959;28;20189;-68
2023/03/05 03:07:26;;;;;;;0.00;0.00;;;3.10;89.80;;;;;;5104320;28;20046;-68
2023/03/05 03:09:52;;;;;;;0.00;0.00;;;3.10;89.80;;;;;;5079614;28;20052;-68
2023/03/05 03:12:18;;;;;;;0.00;0.00;;;3.10;89.80;;;;;;5072190;28;20136;-68
2023/03/05 03:14:43;;;;;;;0.10;0.10;;;3.20;89.90;;;;;;5107129;28;20079;-68
2023/03/05 03:17:12;;;;;;;0.10;0.10;;;3.20;89.70;;;;;;5110429;28;20039;-68
2023/03/05 03:19:38;;;;;;;0.00;0.00;;;3.20;89.90;;;;;;5094278;28;20072;-68
2023/03/05 03:22:05;;;;;;;0.00;0.00;;;3.20;89.80;;;;;;5100856;28;20127;-68
2023/03/05 03:24:33;;;;;;;0.00;0.00;;;3.20;89.70;;;;;;5082859;28;20049;-68
2023/03/05 03:26:59;;;;;;;0.00;0.00;;;3.30;89.70;;;;;;5081917;28;20492;-68
2023/03/05 03:29:25;;;;;;;0.00;0.00;;;3.30;89.70;;;;;;5094849;28;20036;-68
2023/03/05 03:31:51;;;;;;;0.00;0.00;;;3.20;89.60;;;;;;5101808;28;20434;-68
2023/03/05 03:34:17;;;;;;;0.00;0.00;;;3.20;89.60;;;;;;5110438;28;20047;-68
2023/03/05 03:36:44;;;;;;;0.00;0.00;;;3.20;89.60;;;;;;5086989;28;20040;-69
2023/03/05 03:39:11;;;;;;;0.00;0.00;;;3.20;89.50;;;;;;5070238;28;20048;-68
2023/03/05 03:41:40;;;;;;;0.00;0.00;;;3.20;89.50;;;;;;5075502;28;20481;-68
2023/03/05 03:44:07;;;;;;;1.85;0.38;;;3.10;89.50;;;;;;5103996;27;20071;-68
2023/03/05 03:46:33;;;;;;;0.05;0.05;;;3.10;89.30;;;;;;5087938;28;20058;-68
2023/03/05 03:49:00;;;;;;;0.00;0.00;;;3.10;89.50;;;;;;5095801;28;20066;-68
2023/03/05 03:51:26;;;;;;;0.00;0.00;;;3.10;89.50;;;;;;5083826;28;20481;-68
2023/03/05 03:53:51;;;;;;;0.00;0.00;;;3.10;89.50;;;;;;5087855;28;20052;-68
2023/03/05 03:56:17;;;;;;;3.65;1.13;;;3.00;89.50;;;;;;5103158;28;20058;-68
2023/03/05 03:58:43;;;;;;;0.00;0.00;;;3.10;89.60;;;;;;5089463;28;20048;-68
2023/03/05 04:01:08;;;;;;;0.10;0.10;;;3.10;89.60;;;;;;5091693;28;20032;-68
2023/03/05 04:03:34;;;;;;;0.00;0.00;;;3.00;89.40;;;;;;5090048;28;20036;-68
2023/03/05 04:06:00;;;;;;;0.00;0.00;;;3.00;89.60;;;;;;5089852;28;20036;-68
2023/03/05 04:08:25;;;;;;;0.00;0.00;;;3.00;89.50;;;;;;5088503;28;20033;-68
2023/03/05 04:10:51;;;;;;;0.00;0.00;;;3.00;89.50;;;;;;5089585;28;20036;-68
2023/03/05 04:13:16;;;;;;;0.00;0.00;;;2.90;89.40;;;;;;5089792;28;20555;-69
2023/03/05 04:15:42;;;;;;;0.00;0.00;;;2.90;89.50;;;;;;5088458;28;20085;-68
2023/03/05 04:18:09;;;;;;;0.00;0.00;;;2.90;89.60;;;;;;5089180;28;20032;-68
2023/03/05 04:20:34;;;;;;;0.00;0.00;;;2.90;89.70;;;;;;5085667;28;20055;-68
2023/03/05 04:23:00;;;;;;;0.10;0.10;;;2.90;89.90;;;;;;5079072;28;20041;-69
2023/03/05 04:25:25;;;;;;;0.10;0.10;;;3.00;90.00;;;;;;5087105;28;20056;-68
2023/03/05 04:27:51;;;;;;;0.00;0.00;;;3.00;90.00;;;;;;5070461;28;20036;-68
2023/03/05 04:30:17;;;;;;;0.00;0.00;;;3.00;89.90;;;;;;5082469;28;20397;-68
2023/03/05 04:32:42;;;;;;;0.00;0.00;;;3.00;89.80;;;;;;5083250;28;20513;-68
2023/03/05 04:35:09;;;;;;;0.10;0.10;;;3.10;89.80;;;;;;5076285;28;20448;-68
2023/03/05 04:37:34;;;;;;;0.00;0.00;;;3.10;89.80;;;;;;5085163;28;20135;-68
2023/03/05 04:40:00;;;;;;;0.10;0.10;;;3.10;89.80;;;;;;5080654;28;20115;-69
2023/03/05 04:42:26;;;;;;;0.00;0.00;;;3.10;89.60;;;;;;5082661;28;20055;-68
2023/03/05 04:44:51;;;;;;;0.00;0.00;;;3.10;89.70;;;;;;5085628;28;20068;-68
2023/03/05 04:47:18;;;;;;;0.00;0.00;;;3.10;89.80;;;;;;5079441;28;20122;-68
2023/03/05 04:49:44;;;;;;;0.00;0.00;;;3.20;89.70;;;;;;5068951;28;20059;-68
2023/03/05 04:52:13;;;;;;;0.10;0.10;;;3.10;89.60;;;;;;5058682;28;20501;-69
2023/03/05 04:54:39;;;;;;;0.00;0.00;;;3.20;89.60;;;;;;5080749;28;20063;-68
2023/03/05 04:57:05;;;;;;;0.00;0.00;;;3.10;89.50;;;;;;5073719;28;20493;-69
2023/03/05 04:59:31;;;;;;;0.00;0.00;;;3.10;89.50;;;;;;5084357;28;20075;-69
2023/03/05 05:01:57;;;;;;;0.00;0.00;;;3.10;89.40;;;;;;5069363;28;20044;-68
2023/03/05 05:04:22;;;;;;;0.03;0.03;;;3.10;89.40;;;;;;5080385;28;20043;-69
2023/03/05 05:06:48;;;;;;;0.00;0.00;;;3.10;89.30;;;;;;5082611;28;20119;-68
2023/03/05 05:09:14;;;;;;;0.00;0.00;;;3.10;89.20;;;;;;5074428;28;20044;-68
2023/03/05 05:11:39;;;;;;;0.00;0.00;;;3.10;89.30;;;;;;5080241;28;20075;-69
2023/03/05 05:14:06;;;;;;;0.00;0.00;;;3.10;89.20;;;;;;5078544;28;20119;-68
2023/03/05 05:16:31;;;;;;;0.00;0.00;;;3.10;89.10;;;;;;5086009;28;20044;-69
2023/03/05 05:18:57;;;;;;;0.00;0.00;;;3.00;89.10;;;;;;5069908;28;20094;-69
2023/03/05 05:21:23;;;;;;;0.00;0.00;;;3.10;89.20;;;;;;5083163;28;20040;-68
2023/03/05 05:23:48;;;;;;;0.00;0.00;;;3.00;89.20;;;;;;5078026;28;20055;-68
2023/03/05 05:26:14;;;;;;;0.00;0.00;;;3.10;89.20;;;;;;5075778;28;20048;-68
2023/03/05 05:28:42;;;;;;;0.10;0.10;;;3.10;89.10;;;;;;5075298;28;20096;-68
2023/03/05 05:31:12;;;;;;;0.00;0.00;;;3.10;89.00;;;;;;5080938;28;20465;-69
2023/03/05 05:33:38;;;;;;;0.00;0.00;;;3.10;89.00;;;;;;5078673;28;20040;-68
2023/03/05 05:36:06;;;;;;;0.00;0.00;;;3.10;89.00;;;;;;5080937;28;20048;-68
2023/03/05 05:38:32;;;;;;;0.00;0.00;;;3.10;89.00;;;;;;5077023;28;20370;-68
2023/03/05 05:41:09;;;;;;;0.00;0.00;;;3.10;89.00;;;;;;5092241;28;20120;-68
2023/03/05 05:43:35;;;;;;;0.00;0.00;;;3.10;89.20;;;;;;5079230;28;20051;-68
2023/03/05 05:46:02;;;;;;;0.00;0.00;;;3.10;89.20;;;;;;5092200;28;20415;-69
2023/03/05 05:48:30;;;;;;;0.00;0.00;;;3.10;89.10;;;;;;5107650;28;20068;-68
2023/03/05 05:50:56;;;;;;;0.00;0.00;;;3.10;89.20;;;;;;5087445;28;20044;-68
2023/03/05 05:53:22;;;;;;;0.00;0.00;;;3.10;89.30;;;;;;5097692;28;20381;-68
2023/03/05 05:55:48;;;;;;;0.00;0.00;;;3.10;89.30;;;;;;5101180;28;20700;-69
2023/03/05 05:58:13;;;;;;;0.03;0.03;;;3.10;89.30;;;;;;5093535;28;20090;-68
2023/03/05 06:00:39;;;;;;;0.08;0.08;;;3.20;89.20;;;;;;5103805;28;20415;-68
2023/03/05 06:03:04;;;;;;;0.00;0.00;;;3.10;89.30;;;;;;5080659;28;20044;-68
2023/03/05 06:05:30;;;;;;;0.00;0.00;;;3.10;89.20;;;;;;5093765;28;20048;-68
2023/03/05 06:07:56;;;;;;;0.00;0.00;;;3.20;89.20;;;;;;5089767;28;20462;-68
2023/03/05 06:10:21;;;;;;;0.00;0.00;;;3.20;89.20;;;;;;5076219;28;20045;-68
2023/03/05 06:12:47;;;;;;;0.00;0.00;;;3.20;89.20;;;;;;5084247;28;20082;-68
2023/03/05 06:15:12;;;;;;;0.00;0.00;;;3.10;89.00;;;;;;5084645;28;20039;-68
2023/03/05 06:17:38;;;;;;;0.00;0.00;;;3.10;89.10;;;;;;5090184;28;20436;-68
2023/03/05 06:20:05;;;;;;;0.00;0.00;;;3.00;89.10;;;;;;5081430;28;20040;-68
2023/03/05 06:22:34;;;;;;;0.10;0.10;;;3.10;89.20;;;;;;5083939;28;21517;-68
2023/03/05 06:25:00;;;;;;;0.00;0.00;;;3.00;89.20;;;;;;5083942;28;20607;-68
2023/03/05 06:27:25;;;;;;;0.00;0.00;;;3.10;89.20;;;;;;5072089;28;20127;-68
2023/03/05 06:29:53;;;;;;;0.00;0.00;;;3.10;89.10;;;;;;5086226;28;20161;-68
2023/03/05 06:32:19;;;;;;;0.00;0.00;;;3.00;89.10;;;;;;5083505;28;20044;-68
2023/03/05 06:34:44;;;;;;;0.00;0.00;;;3.00;89.10;;;;;;5076590;28;20580;-68
2023/03/05 06:37:10;;;;;;;0.10;0.10;;;3.00;89.20;;;;;;5078311;28;20063;-68
2023/03/05 06:39:36;;;;;;;0.00;0.00;;;3.00;89.20;;;;;;5077307;28;20401;-69
2023/03/05 06:42:01;;;;;;;0.00;0.00;;;3.00;89.20;;;;;;5079013;28;20048;-69
2023/03/05 06:44:27;;;;;;;0.00;0.00;;;3.10;89.20;;;;;;5082374;28;20036;-69
2023/03/05 06:46:53;;;;;;;0.10;0.10;;;3.10;89.10;;;;;;5078983;28;20048;-69
2023/03/05 06:49:19;;;;;;;0.03;0.03;;;3.00;89.00;;;;;;5074213;28;20145;-69
2023/03/05 06:51:44;;;;;;;0.00;0.00;;;3.00;89.20;;;;;;5084485;28;20044;-70
2023/03/05 06:54:13;;;;;;;0.10;0.10;;;3.00;89.10;;;;;;5069940;28;20421;-69
2023/03/05 06:56:41;;;;;;;0.00;0.00;;;3.10;89.10;;;;;;5079083;28;20052;-69
2023/03/05 06:59:07;;;;;;;0.00;0.00;;;3.10;89.00;;;;;;5081609;28;20131;-69
2023/03/05 07:01:33;;;;;;;0.00;0.00;;;3.10;88.90;;;;;;5082740;28;20046;-69
2023/03/05 07:04:01;;;;;;;0.00;0.00;;;3.00;88.80;;;;;;5077262;27;20404;-69
2023/03/05 07:06:28;;;;;;;0.00;0.00;;;3.00;88.70;;;;;;5090151;28;20047;-69
2023/03/05 07:08:57;;;;;;;0.05;0.05;;;3.00;88.70;;;;;;5088858;28;20051;-69
2023/03/05 07:11:23;;;;;;;0.00;0.00;;;3.00;88.70;;;;;;5086992;28;20507;-69
2023/03/05 07:13:50;;;;;;;0.00;0.00;;;3.00;88.60;;;;;;5090167;28;20852;-69
2023/03/05 07:16:18;;;;;;;0.03;0.03;;;3.00;88.40;;;;;;5090458;27;20872;-69
2023/03/05 07:18:45;;;;;;;0.00;0.00;;;3.00;88.20;;;;;;5078234;28;20067;-69
2023/03/05 07:21:14;;;;;;;0.00;0.00;;;3.00;88.00;;;;;;5077218;28;20052;-69
2023/03/05 07:23:40;;;;;;;0.00;0.00;;;3.10;87.80;;;;;;5090692;28;20040;-69
2023/03/05 07:26:06;;;;;;;0.10;0.10;;;3.10;87.80;;;;;;5089945;28;20075;-69
2023/03/05 07:28:32;;;;;;;0.00;0.00;;;3.10;87.50;;;;;;5088423;28;20123;-69
2023/03/05 07:31:00;;;;;;;0.10;0.10;;;3.10;87.40;;;;;;5090280;27;20181;-69
2023/03/05 07:33:26;;;;;;;0.00;0.00;;;3.20;87.30;;;;;;5079295;28;20036;-69
2023/03/05 07:35:52;;;;;;;0.00;0.00;;;3.20;87.40;;;;;;5083499;28;20059;-69
2023/03/05 07:38:18;;;;;;;0.00;0.00;;;3.30;87.30;;;;;;5080754;28;20059;-69
2023/03/05 07:40:44;;;;;;;0.10;0.10;;;3.40;87.30;;;;;;5080853;28;20052;-70
2023/03/05 07:43:09;;;;;;;0.00;0.00;;;3.50;87.30;;;;;;5082457;28;20043;-69
2023/03/05 07:45:39;;;;;;;0.00;0.00;;;3.50;87.20;;;;;;5093803;28;20052;-68
2023/03/05 07:48:05;;;;;;;0.00;0.00;;;3.50;87.20;;;;;;5063559;28;20050;-68
2023/03/05 07:50:32;;;;;;;0.10;0.10;;;3.60;87.10;;;;;;5088097;28;20052;-69
2023/03/05 07:52:58;;;;;;;0.00;0.00;;;3.60;87.10;;;;;;5085361;28;20789;-69
2023/03/05 07:55:23;;;;;;;0.00;0.00;;;3.70;87.10;;;;;;5080293;28;20049;-70
2023/03/05 07:57:49;;;;;;;0.00;0.00;;;3.80;87.10;;;;;;5081388;28;20495;-69
2023/03/05 08:00:15;;;;;;;0.00;0.00;;;3.80;87.00;;;;;;5075456;28;20052;-67
2023/03/05 08:02:41;;;;;;;0.00;0.00;;;3.80;87.00;;;;;;5080073;28;20040;-68
2023/03/05 08:05:07;;;;;;;0.00;0.00;;;3.80;87.00;;;;;;5080321;28;20048;-69
2023/03/05 08:07:32;;;;;;;8.20;2.42;;;3.90;86.90;;;;;;5078609;28;20173;-69
2023/03/05 08:09:58;;;;;;;0.00;0.00;;;3.90;86.90;;;;;;5077970;28;20402;-69
2023/03/05 08:12:23;;;;;;;0.00;0.00;;;4.00;86.90;;;;;;5080185;28;20093;-70
2023/03/05 08:14:50;;;;;;;0.00;0.00;;;4.10;86.90;;;;;;5076429;28;20036;-69
2023/03/05 08:17:16;;;;;;;0.00;0.00;;;4.10;86.80;;;;;;5078659;28;20623;-69
2023/03/05 08:19:41;;;;;;;0.00;0.00;;;4.10;86.80;;;;;;5077986;28;20124;-69
2023/03/05 08:22:07;;;;;;;0.00;0.00;;;4.20;86.80;;;;;;5075452;28;20055;-70
2023/03/05 08:24:32;;;;;;;0.00;0.00;;;4.20;86.60;;;;;;5081541;28;20039;-70
2023/03/05 08:26:58;;;;;;;0.00;0.00;;;4.30;86.60;;;;;;5073823;28;20059;-69
2023/03/05 08:29:24;;;;;;;0.00;0.00;;;4.40;86.60;;;;;;5083978;28;20131;-70
2023/03/05 08:31:52;;;;;;;0.00;0.00;;;4.40;86.40;;;;;;5082564;28;20052;-69
2023/03/05 08:34:19;;;;;;;0.00;0.00;;;4.50;86.50;;;;;;5084215;28;20119;-69
2023/03/05 08:36:45;;;;;;;0.00;0.00;;;4.50;86.30;;;;;;5082454;28;20059;-70
2023/03/05 08:39:10;;;;;;;0.00;0.00;;;4.60;86.30;;;;;;5084953;28;20397;-70
2023/03/05 08:41:36;;;;;;;0.00;0.00;;;4.60;85.80;;;;;;5084260;28;20045;-70
2023/03/05 08:44:02;;;;;;;0.00;0.00;;;4.70;86.00;;;;;;5086921;28;20156;-70
2023/03/05 08:46:28;;;;;;;0.00;0.00;;;4.70;86.00;;;;;;5086265;28;20044;-70
2023/03/05 08:48:54;;;;;;;0.10;0.10;;;4.70;85.90;;;;;;5084320;28;20063;-70
2023/03/05 08:51:25;;;;;;;0.10;0.10;;;4.80;85.70;;;;;;5086327;28;20097;-70
2023/03/05 08:53:53;;;;;;;0.00;0.00;;;4.80;85.30;;;;;;5085363;28;20048;-70
2023/03/05 08:56:18;;;;;;;0.00;0.00;;;4.80;85.30;;;;;;5085372;28;20409;-70
2023/03/05 08:58:45;;;;;;;6.30;2.35;;;4.90;85.00;;;;;;5084738;28;20059;-70
2023/03/05 09:01:11;;;;;;;0.00;0.00;;;5.00;84.90;;;;;;5083501;28;20066;-70
2023/03/05 09:03:37;;;;;;;0.00;0.00;;;5.00;85.10;;;;;;5078633;28;20047;-70
2023/03/05 09:06:05;;;;;;;0.10;0.10;;;5.10;85.10;;;;;;5082232;28;20052;-71
2023/03/05 09:08:31;;;;;;;0.00;0.00;;;5.10;85.00;;;;;;5083452;28;20048;-71
2023/03/05 09:11:04;;;;;;;0.00;0.00;;;5.10;84.80;;;;;;5082654;28;20052;-70
2023/03/05 09:13:30;;;;;;;0.00;0.00;;;5.20;84.10;;;;;;5081231;28;20040;-70
2023/03/05 09:15:57;;;;;;;0.00;0.00;;;5.30;83.60;;;;;;5081954;28;20109;-70
2023/03/05 09:18:23;;;;;;;0.10;0.10;;;5.40;83.20;;;;;;5086221;28;20131;-70
2023/03/05 09:20:49;;;;;;;0.00;0.00;;;5.60;82.30;;;;;;5087831;28;20209;-65
2023/03/05 09:23:14;;;;;;;0.00;0.00;;;5.50;81.40;;;;;;5088908;28;20140;-65
2023/03/05 09:25:40;;;;;;;0.00;0.00;;;5.60;81.20;;;;;;5086216;28;20036;-63
2023/03/05 09:28:07;;;;;;;0.00;0.00;;;5.50;80.60;;;;;;5081972;28;20802;-63
2023/03/05 09:30:36;;;;;;;0.00;0.00;;;5.50;80.70;;;;;;5084083;28;21227;-67
2023/03/05 09:33:02;;;;;;;0.00;0.00;;;5.60;80.30;;;;;;5078121;28;20174;-66
2023/03/05 09:35:28;;;;;;;0.00;0.00;;;5.50;80.60;;;;;;5076377;28;20093;-65
2023/03/05 09:37:54;;;;;;;0.00;0.00;;;5.50;80.60;;;;;;5089095;28;20566;-65
2023/03/05 09:40:21;;;;;;;0.00;0.00;;;5.50;80.80;;;;;;5091197;28;20397;-65
2023/03/05 09:43:15;;;;;;;0.00;0.00;;;5.50;81.00;;;;;;5085971;28;20040;-65
2023/03/05 09:45:43;;;;;;;0.00;0.00;;;5.60;81.30;;;;;;5091370;28;20040;-65
2023/03/05 09:48:21;;;;;;;0.00;0.00;;;5.60;81.00;;;;;;5094774;28;20040;-65
2023/03/05 09:50:53;;;;;;;0.00;0.00;;;5.70;80.00;;;;;;5086692;28;20047;-65
2023/03/05 09:54:02;;;;;;;0.10;0.10;;;5.80;77.70;;;;;;5088148;28;20047;-66
2023/03/05 09:56:36;;;;;;;0.08;0.08;;;5.90;77.70;;;;;;5059161;28;20531;-66
2023/03/05 09:59:16;;;;;;;0.00;0.00;;;5.90;77.00;;;;;;5083616;28;20055;-66
2023/03/05 10:01:43;;;;;;;0.00;0.00;;;5.90;76.90;;;;;;5088354;28;20047;-66
2023/03/05 10:04:14;;;;;;;0.00;0.00;;;6.00;77.50;;;;;;5087712;28;20040;-66
2023/03/05 10:06:43;;;;;;;0.45;0.45;;;6.00;76.50;;;;;;5088906;28;20051;-66
2023/03/05 10:09:08;;;;;;;0.00;0.00;;;6.00;76.40;;;;;;5089013;28;20051;-66
2023/03/05 10:11:55;;;;;;;1.55;1.45;;;6.00;76.60;;;;;;5090270;28;20032;-67
2023/03/05 10:14:34;;;;;;;0.10;0.10;;;6.00;77.20;;;;;;5085090;28;20521;-67
2023/03/05 10:17:35;;;;;;;0.00;0.00;;;5.90;76.50;;;;;;5089135;28;20052;-67
2023/03/05 10:20:21;;;;;;;0.00;0.00;;;5.90;77.00;;;;;;5085976;28;20151;-67
2023/03/05 10:23:02;;;;;;;0.00;0.00;;;5.90;77.40;;;;;;5088574;28;20761;-67
2023/03/05 10:26:06;;;;;;;0.00;0.00;;;5.90;77.80;;;;;;5088017;28;20044;-67
2023/03/05 10:28:51;;;;;;;0.00;0.00;;;5.80;77.20;;;;;;5089482;28;20114;-67
2023/03/05 10:31:34;;;;;;;0.00;0.00;;;5.90;76.50;;;;;;5089284;28;20097;-67
2023/03/05 10:34:30;;;;;;;0.00;0.00;;;6.00;77.20;;;;;;5088579;28;20089;-67
2023/03/05 10:37:06;;;;;;;0.00;0.00;;;5.90;77.40;;;;;;5089494;28;20048;-67
2023/03/05 10:39:58;;;;;;;0.00;0.00;;;6.00;76.80;;;;;;5089566;28;20036;-67
2023/03/05 10:42:29;;;;;;;0.00;0.00;;;6.10;77.40;;;;;;5089300;28;20431;-67
2023/03/05 10:45:00;;;;;;;0.00;0.00;;;6.10;76.90;;;;;;5090079;28;20132;-67
2023/03/05 10:47:52;;;;;;;0.13;0.13;;;6.10;76.80;;;;;;5088115;28;20173;-67
2023/03/05 10:50:20;;;;;;;0.00;0.00;;;6.20;77.10;;;;;;5087885;28;20060;-67
2023/03/05 10:52:51;;;;;;;0.00;0.00;;;6.30;76.90;;;;;;5085366;28;20637;-68
2023/03/05 10:55:20;;;;;;;0.00;0.00;;;6.30;75.00;;;;;;5079555;28;20053;-68
2023/03/05 10:57:46;;;;;;;0.00;0.00;;;6.20;74.60;;;;;;5084448;28;20500;-67
2023/03/05 11:00:22;;;;;;;0.00;0.00;;;6.10;75.00;;;;;;5080809;28;20097;-66
2023/03/05 11:03:01;;;;;;;0.00;0.00;;;6.10;75.00;;;;;;5096720;28;20047;-67
2023/03/05 11:05:46;;;;;;;0.08;0.08;;;6.20;75.90;;;;;;5081278;28;20039;-67
2023/03/05 11:08:23;;;;;;;0.00;0.00;;;6.40;75.30;;;;;;5083156;28;20119;-66
2023/03/05 11:11:14;;;;;;;0.00;0.00;;;6.30;72.70;;;;;;5099102;28;20044;-67
2023/03/05 11:13:49;;;;;;;0.00;0.00;;;6.30;72.40;;;;;;5088521;28;20048;-67
2023/03/05 11:16:19;;;;;;;0.17;0.17;;;6.30;72.60;;;;;;5080939;28;20497;-66
2023/03/05 11:18:45;;;;;;;0.00;0.00;;;6.50;73.40;;;;;;5081199;28;20032;-66
2023/03/05 11:21:26;;;;;;;0.10;0.10;;;6.60;73.60;;;;;;5086529;28;20046;-66
2023/03/05 11:24:15;;;;;;;0.00;0.00;;;6.60;73.70;;;;;;5109541;28;20767;-66
2023/03/05 11:26:50;;;;;;;0.00;0.00;;;6.60;74.00;;;;;;5095685;28;20040;-66
2023/03/05 11:29:29;;;;;;;0.10;0.10;;;6.60;73.40;;;;;;5093425;28;20775;-65
2023/03/05 11:31:55;;;;;;;0.00;0.00;;;6.50;73.20;;;;;;5101987;27;20035;-65
2023/03/05 11:34:30;;;;;;;0.10;0.10;;;6.50;72.70;;;;;;5098294;28;20042;-65
2023/03/05 11:36:55;;;;;;;0.00;0.00;;;6.50;72.40;;;;;;5096334;28;20068;-65
2023/03/05 11:39:23;;;;;;;0.00;0.00;;;6.40;72.80;;;;;;5092163;28;20602;-65
2023/03/05 11:42:05;;;;;;;0.10;0.10;;;6.40;73.40;;;;;;5081206;28;20162;-66
2023/03/05 11:44:39;;;;;;;0.00;0.00;;;6.50;73.20;;;;;;5097463;28;20073;-67
2023/03/05 11:47:43;;;;;;;0.00;0.00;;;6.60;73.40;;;;;;5099968;28;20721;-67
2023/03/05 11:50:15;;;;;;;0.00;0.00;;;6.60;73.30;;;;;;5090318;28;20150;-68
2023/03/05 11:53:02;;;;;;;0.00;0.00;;;6.70;72.60;;;;;;5104705;28;20598;-68
2023/03/05 11:55:34;;;;;;;0.00;0.00;;;6.90;72.90;;;;;;5078654;28;20396;-68
2023/03/05 11:58:06;;;;;;;0.00;0.00;;;6.90;71.80;;;;;;5091271;28;20123;-68
2023/03/05 12:00:35;;;;;;;0.00;0.00;;;6.90;72.10;;;;;;5105044;28;20423;-68
2023/03/05 12:03:06;;;;;;;0.00;0.00;;;6.80;71.90;;;;;;5087340;28;20055;-67
2023/03/05 12:05:34;;;;;;;0.00;0.00;;;6.80;71.30;;;;;;5086123;28;20087;-68
2023/03/05 12:08:01;;;;;;;0.00;0.00;;;6.90;71.70;;;;;;5076443;28;20672;-68
2023/03/05 12:10:27;;;;;;;0.00;0.00;;;6.90;72.20;;;;;;5079914;28;20130;-67
2023/03/05 12:13:03;;;;;;;0.00;0.00;;;6.90;72.30;;;;;;5077701;28;20170;-67
2023/03/05 12:15:53;;;;;;;0.00;0.00;;;6.90;71.60;;;;;;5079905;28;20101;-67
2023/03/05 12:18:51;;;;;;;0.00;0.00;;;6.90;72.90;;;;;;5084076;28;20128;-66
2023/03/05 12:21:26;;;;;;;0.00;0.00;;;6.80;71.30;;;;;;5087059;28;20374;-67
2023/03/05 12:23:57;;;;;;;0.00;0.00;;;6.80;71.70;;;;;;5092429;28;20047;-69
2023/03/05 12:27:03;;;;;;;0.00;0.00;;;6.70;71.90;;;;;;5087713;28;20036;-67
2023/03/05 12:29:32;;;;;;;0.00;0.00;;;6.60;71.50;;;;;;5072937;28;20040;-65
2023/03/05 12:32:01;;;;;;;1.55;1.45;;;6.70;72.90;;;;;;5081807;28;20527;-68
2023/03/05 12:35:05;;;;;;;0.00;0.00;;;6.90;72.60;;;;;;5088568;28;20123;-68
2023/03/05 12:37:31;;;;;;;0.00;0.00;;;7.10;71.20;;;;;;5086942;28;20146;-68
2023/03/05 12:40:07;;;;;;;0.00;0.00;;;7.10;69.90;;;;;;5088602;28;20127;-68
2023/03/05 12:42:32;;;;;;;0.00;0.00;;;7.20;70.60;;;;;;5089360;28;20087;-68
2023/03/05 12:45:10;;;;;;;0.10;0.10;;;7.10;70.70;;;;;;5088607;28;20569;-68
2023/03/05 12:47:37;;;;;;;0.00;0.00;;;7.00;70.30;;;;;;5089299;28;20105;-68
2023/03/05 12:50:03;;;;;;;0.00;0.00;;;6.90;70.30;;;;;;5089716;28;20040;-69
2023/03/05 12:52:31;;;;;;;0.00;0.00;;;6.90;71.10;;;;;;5089193;28;20040;-68
2023/03/05 12:55:22;;;;;;;0.00;0.00;;;7.00;71.40;;;;;;5088659;28;20127;-68
2023/03/05 12:57:57;;;;;;;0.00;0.00;;;6.90;70.50;;;;;;5081440;28;20052;-68
2023/03/05 13:00:37;;;;;;;0.00;0.00;;;6.80;71.40;;;;;;5089367;28;20048;-68
2023/03/05 13:03:13;;;;;;;0.00;0.00;;;6.70;71.90;;;;;;5094605;28;20047;-68
2023/03/05 13:05:51;;;;;;;0.00;0.00;;;6.60;73.10;;;;;;5089250;28;20040;-68
2023/03/05 13:08:25;;;;;;;0.00;0.00;;;6.50;74.30;;;;;;5089006;28;20082;-68